European Highlander — C6SN6 — position and weather

sailwx.info

Track history (hours):
 
Tides and Currents Weather Stations Pressure Air Temp Water Temp Dewpoint Dewpoint Depression Visibility Wind Speed Wind Dir Waves Ship Positions

European Highlander

Operator: P&O Irish Sea Ltd

Last reported at 2017-Apr-30 14:28 UTC. Time now 2017-Apr-30 14:46 UTC.
Position N 54°51' W 005°48'.

Length 161 m; draft 5.3 m.

Type: Passenger vessel. MMSI: 311404000.

Date/timePositionNaut miles runAvg speedWind from/ knotsBaromVisibWave heightAir tempDewpointWater temp
2017-Apr-30 14:28N 54°51' W 005°48'5 4.8
2017-Apr-30 13:30N 54°53' W 005°41'815.8
2017-Apr-30 13:00N 54°57' W 005°29'816.1
2017-Apr-30 12:31N 55°00' W 005°16'713.7
2017-Apr-30 11:58N 54°59' W 005°03'2 4.3
2017-Apr-30 11:27N 54°58' W 005°01'0 0.0
2017-Apr-30 10:57N 54°58' W 005°01'0 0.0
2017-Apr-30 10:30N 54°58' W 005°01'0 0.0
2017-Apr-30 09:57N 54°58' W 005°01'0 0.0
2017-Apr-30 09:30N 54°58' W 005°01'0 0.0
2017-Apr-30 08:39N 54°58' W 005°01'0 0.0
2017-Apr-30 08:31N 54°58' W 005°01'5 9.9
2017-Apr-30 08:00N 55°02' W 005°07'816.8
2017-Apr-30 07:30N 54°59' W 005°20'816.2
2017-Apr-30 07:00N 54°55' W 005°33'816.0
2017-Apr-30 06:30N 54°52' W 005°46'2 3.0
2017-Apr-30 05:59N 54°51' W 005°48'0 0.0
2017-Apr-30 05:29N 54°51' W 005°48'0 0.0
2017-Apr-30 04:59N 54°51' W 005°48'0 0.0
2017-Apr-30 04:29N 54°51' W 005°48'0 0.0
2017-Apr-30 03:59N 54°51' W 005°48'0 0.0
2017-Apr-30 03:26N 54°51' W 005°48'0 0.0
2017-Apr-30 02:59N 54°51' W 005°48'0 0.0
2017-Apr-30 02:29N 54°51' W 005°48'0 0.0
2017-Apr-30 01:59N 54°51' W 005°48'0 0.0
2017-Apr-30 01:29N 54°51' W 005°48'0 0.0
2017-Apr-30 00:59N 54°51' W 005°48'0 0.0
2017-Apr-30 00:29N 54°51' W 005°48'0 0.0
2017-Apr-29 23:59N 54°51' W 005°48'0 0.0
2017-Apr-29 23:29N 54°51' W 005°48'0 0.0
2017-Apr-29 22:59N 54°51' W 005°48'0 0.0
2017-Apr-29 22:29N 54°51' W 005°48'0 0.0
2017-Apr-29 21:59N 54°51' W 005°48'0 0.0
2017-Apr-29 21:29N 54°51' W 005°48'0 0.0
2017-Apr-29 20:59N 54°51' W 005°48'3 5.3
2017-Apr-29 20:30N 54°52' W 005°45'917.2
2017-Apr-29 20:00N 54°56' W 005°31'917.3
2017-Apr-29 19:30N 54°60' W 005°17'814.9
2017-Apr-29 18:58N 54°59' W 005°03'2 3.9
2017-Apr-29 18:28N 54°58' W 005°01'0 0.0
2017-Apr-29 17:58N 54°58' W 005°01'0 0.0
2017-Apr-29 17:30N 54°58' W 005°01'510.8
2017-Apr-29 17:01N 55°02' W 005°08'917.4
2017-Apr-29 16:30N 54°58' W 005°22'816.9
2017-Apr-29 16:01N 54°54' W 005°35'815.7
2017-Apr-29 15:31N 54°52' W 005°48'1 1.4
2017-Apr-29 14:59N 54°51' W 005°48'5 4.8
2017-Apr-29 14:00N 54°54' W 005°41'816.9
2017-Apr-29 13:30N 54°57' W 005°28'816.7
2017-Apr-29 13:01N 55°01' W 005°15'714.0
2017-Apr-29 12:29N 54°59' W 005°02'1 2.3
2017-Apr-29 11:52N 54°58' W 005°01'0 0.0
2017-Apr-29 11:30N 54°58' W 005°01'611.6
2017-Apr-29 11:00N 55°01' W 005°09'817.0
2017-Apr-29 10:30N 54°57' W 005°22'918.1
2017-Apr-29 10:00N 54°54' W 005°36'714.7
2017-Apr-29 09:31N 54°51' W 005°48'0 0.2
2017-Apr-29 08:58N 54°51' W 005°48'0 0.0
2017-Apr-29 08:28N 54°51' W 005°48'4 8.9
2017-Apr-29 08:00N 54°53' W 005°42'917.1
2017-Apr-29 07:30N 54°57' W 005°29'917.2
2017-Apr-29 07:01N 55°01' W 005°16'714.6
2017-Apr-29 06:30N 54°59' W 005°03'2 3.8
2017-Apr-29 05:58N 54°58' W 005°01'0 0.0
2017-Apr-29 05:28N 54°58' W 005°01'0 0.0
2017-Apr-29 04:59N 54°58' W 005°01'5 9.2
2017-Apr-29 04:27N 55°02' W 005°06'818.0
2017-Apr-29 04:01N 54°58' W 005°19'918.0
2017-Apr-29 03:30N 54°55' W 005°33'817.0
2017-Apr-29 03:00N 54°52' W 005°47'1 2.0
2017-Apr-29 02:29N 54°51' W 005°48'0 0.0
2017-Apr-29 01:59N 54°51' W 005°48'0 0.0
2017-Apr-29 01:29N 54°51' W 005°48'0 0.0
2017-Apr-29 00:59N 54°51' W 005°48'4 8.1
2017-Apr-29 00:30N 54°53' W 005°43'917.4
2017-Apr-29 00:00N 54°57' W 005°29'917.5
2017-Apr-28 23:30N 55°00' W 005°15'714.1
2017-Apr-28 23:00N 54°59' W 005°03'2 3.5
2017-Apr-28 22:30N 54°58' W 005°01'0 0.0
2017-Apr-28 21:57N 54°58' W 005°01'0 0.0
2017-Apr-28 21:30N 54°58' W 005°01'0 0.0
2017-Apr-28 21:00N 54°58' W 005°01'510.5
2017-Apr-28 20:30N 55°01' W 005°07'918.8
2017-Apr-28 20:00N 54°58' W 005°22'1020.8
2017-Apr-28 19:30N 54°53' W 005°39'611.6
2017-Apr-28 19:00N 54°51' W 005°48'0 0.0
2017-Apr-28 18:28N 54°51' W 005°48'0 0.0
2017-Apr-28 17:58N 54°51' W 005°48'0 0.0
2017-Apr-28 17:30N 54°51' W 005°48'612.9
2017-Apr-28 17:00N 54°54' W 005°38'917.1
2017-Apr-28 16:30N 54°58' W 005°25'816.4
2017-Apr-28 16:00N 55°01' W 005°12'714.1
2017-Apr-28 15:30N 54°58' W 005°01'0 0.0
2017-Apr-28 14:56N 54°58' W 005°01'5 5.5
2017-Apr-28 14:01N 55°02' W 005°07'919.0
2017-Apr-28 13:31N 54°58' W 005°22'917.5
2017-Apr-28 13:01N 54°54' W 005°36'815.1
2017-Apr-28 12:30N 54°51' W 005°48'0 0.2
2017-Apr-28 12:00N 54°51' W 005°48'0 0.0
2017-Apr-28 11:30N 54°51' W 005°48'611.9
2017-Apr-28 11:00N 54°54' W 005°39'918.1
2017-Apr-28 10:30N 54°58' W 005°25'1019.7
2017-Apr-28 10:00N 55°02' W 005°09'611.9
2017-Apr-28 09:30N 54°58' W 005°01'0 0.0
2017-Apr-28 09:00N 54°58' W 005°01'0 0.0
2017-Apr-28 08:30N 54°58' W 005°01'5 8.3
2017-Apr-28 07:54N 55°02' W 005°06'616.3
2017-Apr-28 07:30N 54°59' W 005°17'918.3
2017-Apr-28 07:01N 54°55' W 005°31'918.6
2017-Apr-28 06:30N 54°52' W 005°47'1 2.8
2017-Apr-28 06:00N 54°51' W 005°48'0 0.0
2017-Apr-28 05:30N 54°51' W 005°48'0 0.0
2017-Apr-28 05:00N 54°51' W 005°48'611.9
2017-Apr-28 04:31N 54°54' W 005°40'917.4
2017-Apr-28 04:00N 54°58' W 005°26'816.9
2017-Apr-28 03:30N 55°01' W 005°12'713.9
2017-Apr-28 03:01N 54°58' W 005°01'0 0.7
2017-Apr-28 02:29N 54°58' W 005°01'0 0.0
2017-Apr-28 01:56N 54°58' W 005°01'0 0.0
2017-Apr-28 01:29N 54°58' W 005°01'0 0.0
2017-Apr-28 01:00N 54°58' W 005°01'510.3
2017-Apr-28 00:30N 55°01' W 005°07'917.3
2017-Apr-28 00:01N 54°57' W 005°20'1617.4
2017-Apr-27 23:05N 54°52' W 005°47'112.3
2017-Apr-27 23:00N 54°51' W 005°48'0 0.8
2017-Apr-27 22:29N 54°51' W 005°48'0 0.0
2017-Apr-27 21:59N 54°51' W 005°48'0 0.0
2017-Apr-27 21:29N 54°51' W 005°48'0 0.1
2017-Apr-27 21:00N 54°51' W 005°48'713.1
2017-Apr-27 20:30N 54°54' W 005°38'816.4
2017-Apr-27 20:00N 54°58' W 005°25'917.8
2017-Apr-27 19:30N 55°01' W 005°11'611.7
2017-Apr-27 19:00N 54°58' W 005°02'1 1.7
2017-Apr-27 18:29N 54°58' W 005°01'0 0.0
2017-Apr-27 17:59N 54°58' W 005°01'0 0.0
2017-Apr-27 17:30N 54°58' W 005°01'5 8.7
2017-Apr-27 16:57N 55°02' W 005°06'819.1
2017-Apr-27 16:30N 54°59' W 005°20'1019.7
2017-Apr-27 16:00N 54°54' W 005°35'815.9
2017-Apr-27 15:30N 54°51' W 005°48'0 0.2
2017-Apr-27 14:55N 54°51' W 005°48'5 5.3
2017-Apr-27 14:01N 54°54' W 005°41'1020.7
2017-Apr-27 13:31N 54°58' W 005°25'919.0
2017-Apr-27 13:01N 55°01' W 005°09'612.1
2017-Apr-27 12:30N 54°58' W 005°01'0 0.0
2017-Apr-27 12:00N 54°58' W 005°01'0 0.0
2017-Apr-27 11:30N 54°58' W 005°01'611.2
2017-Apr-27 11:00N 55°02' W 005°08'816.9
2017-Apr-27 10:30N 54°58' W 005°21'917.3
2017-Apr-27 10:00N 54°55' W 005°35'815.9
2017-Apr-27 09:30N 54°51' W 005°48'0 0.6
2017-Apr-27 08:59N 54°51' W 005°48'0 0.0
2017-Apr-27 08:31N 54°51' W 005°48'510.8
2017-Apr-27 08:01N 54°54' W 005°40'816.4
2017-Apr-27 07:30N 54°57' W 005°27'917.5
2017-Apr-27 07:00N 55°01' W 005°13'612.8
2017-Apr-27 06:30N 54°59' W 005°03'1 2.8
2017-Apr-27 05:59N 54°58' W 005°01'0 0.0
2017-Apr-27 05:29N 54°58' W 005°01'0 0.0
2017-Apr-27 05:00N 54°58' W 005°01'5 9.1
2017-Apr-27 04:28N 55°02' W 005°06'818.1
2017-Apr-27 04:01N 54°58' W 005°20'918.7
2017-Apr-27 03:30N 54°54' W 005°35'816.1
2017-Apr-27 03:00N 54°51' W 005°48'0 0.6
2017-Apr-27 02:26N 54°51' W 005°48'0 0.0
2017-Apr-27 01:59N 54°51' W 005°48'0 0.0
2017-Apr-27 01:29N 54°51' W 005°48'0 0.0
2017-Apr-27 00:59N 54°51' W 005°48'5 9.8
2017-Apr-27 00:30N 54°53' W 005°41'918.1
2017-Apr-27 00:00N 54°57' W 005°27'917.4
2017-Apr-26 23:30N 55°01' W 005°13'713.7
2017-Apr-26 23:00N 54°59' W 005°02'1 1.3
2017-Apr-26 22:13N 54°58' W 005°01'0 0.0
2017-Apr-26 21:40N 54°58' W 005°01'0 0.0
2017-Apr-26 21:25N 54°58' W 005°01'0 0.1
2017-Apr-26 21:00N 54°58' W 005°01'611.8
2017-Apr-26 20:31N 55°01' W 005°09'816.2
2017-Apr-26 20:00N 54°57' W 005°21'918.3
2017-Apr-26 19:30N 54°54' W 005°36'714.9
2017-Apr-26 19:00N 54°51' W 005°48'0 0.2
2017-Apr-26 18:29N 54°51' W 005°48'0 0.0
2017-Apr-26 17:59N 54°51' W 005°48'0 0.0
2017-Apr-26 17:31N 54°51' W 005°48'611.8
2017-Apr-26 17:00N 54°54' W 005°39'917.9
2017-Apr-26 16:30N 54°58' W 005°25'917.8
2017-Apr-26 16:01N 55°01' W 005°11'713.2
2017-Apr-26 15:30N 54°58' W 005°01'0 0.0
2017-Apr-26 14:58N 54°58' W 005°01'0 0.0
2017-Apr-26 14:30N 54°58' W 005°01'1312.6
2017-Apr-26 13:30N 54°57' W 005°23'917.2
2017-Apr-26 13:00N 54°54' W 005°36'714.3
2017-Apr-26 12:31N 54°51' W 005°48'0 0.2
2017-Apr-26 11:58N 54°51' W 005°48'0 0.0
2017-Apr-26 11:29N 54°51' W 005°48'510.7
2017-Apr-26 11:00N 54°54' W 005°41'918.5
2017-Apr-26 10:30N 54°58' W 005°26'918.4
2017-Apr-26 10:00N 55°01' W 005°11'713.5
2017-Apr-26 09:30N 54°58' W 005°01'0 0.1
2017-Apr-26 09:00N 54°58' W 005°01'0 0.0
2017-Apr-26 08:30N 54°58' W 005°01'611.4
2017-Apr-26 08:01N 55°01' W 005°08'918.5
2017-Apr-26 07:31N 54°57' W 005°23'1020.7
2017-Apr-26 07:00N 54°53' W 005°39'511.0
2017-Apr-26 06:30N 54°51' W 005°48'0 0.0
2017-Apr-26 05:59N 54°51' W 005°48'0 0.0
2017-Apr-26 05:29N 54°51' W 005°48'0 0.0
2017-Apr-26 05:00N 54°51' W 005°48'611.5
2017-Apr-26 04:30N 54°54' W 005°40'917.9
2017-Apr-26 04:00N 54°58' W 005°26'918.0
2017-Apr-26 03:31N 55°01' W 005°11'713.5
2017-Apr-26 03:01N 54°58' W 005°01'0 0.0
2017-Apr-26 02:29N 54°58' W 005°01'0 0.0
2017-Apr-26 01:59N 54°58' W 005°01'0 0.0
2017-Apr-26 01:26N 54°58' W 005°01'0 0.0
2017-Apr-26 01:00N 54°58' W 005°01'510.9
2017-Apr-26 00:31N 55°02' W 005°08'918.3
2017-Apr-26 00:01N 54°58' W 005°23'816.4
2017-Apr-25 23:31N 54°54' W 005°35'815.4
2017-Apr-25 23:00N 54°51' W 005°48'0 0.8
2017-Apr-25 22:28N 54°51' W 005°48'0 0.0
2017-Apr-25 21:55N 54°51' W 005°48'0 0.0
2017-Apr-25 21:28N 54°51' W 005°48'0 0.0
2017-Apr-25 21:01N 54°51' W 005°48'612.3
2017-Apr-25 20:30N 54°54' W 005°39'917.4
2017-Apr-25 20:00N 54°58' W 005°25'917.7
2017-Apr-25 19:30N 55°02' W 005°11'612.7
2017-Apr-25 19:01N 54°58' W 005°02'1 1.8
2017-Apr-25 18:28N 54°58' W 005°01'0 0.0
2017-Apr-25 17:58N 54°58' W 005°01'0 0.0
2017-Apr-25 17:30N 54°58' W 005°01'5 9.3
2017-Apr-25 16:59N 55°02' W 005°06'918.6
2017-Apr-25 16:30N 54°58' W 005°20'1019.9
2017-Apr-25 16:00N 54°54' W 005°36'714.9
2017-Apr-25 15:31N 54°51' W 005°48'0 0.1
2017-Apr-25 14:55N 54°51' W 005°48'5 5.2
2017-Apr-25 14:00N 54°54' W 005°41'917.7
2017-Apr-25 13:30N 54°58' W 005°27'816.7
2017-Apr-25 13:00N 55°01' W 005°14'713.7
2017-Apr-25 12:31N 54°59' W 005°02'1 2.2
2017-Apr-25 11:52N 54°58' W 005°01'0 0.0
2017-Apr-25 11:30N 54°58' W 005°01'5 9.4
2017-Apr-25 10:59N 55°02' W 005°06'817.2
2017-Apr-25 10:30N 54°58' W 005°19'917.7
2017-Apr-25 10:00N 54°55' W 005°33'917.6
2017-Apr-25 09:30N 54°51' W 005°48'0 0.4
2017-Apr-25 09:00N 54°51' W 005°48'0 0.0
2017-Apr-25 08:30N 54°51' W 005°48'510.9
2017-Apr-25 08:00N 54°54' W 005°40'1019.5
2017-Apr-25 07:31N 54°57' W 005°24'1312.2
2017-Apr-25 06:25N 54°58' W 005°01'0 0.0
2017-Apr-25 05:58N 54°58' W 005°01'0 0.0
2017-Apr-25 05:28N 54°58' W 005°01'0 0.0
2017-Apr-25 05:00N 54°58' W 005°01'510.4
2017-Apr-25 04:30N 55°02' W 005°07'918.2
2017-Apr-25 04:00N 54°58' W 005°22'1019.2
2017-Apr-25 03:30N 54°54' W 005°37'714.1
2017-Apr-25 03:01N 54°51' W 005°48'0 0.1
2017-Apr-25 02:30N 54°51' W 005°48'0 0.0
2017-Apr-25 02:00N 54°51' W 005°48'0 0.0
2017-Apr-25 01:30N 54°51' W 005°48'0 0.0
2017-Apr-25 01:00N 54°51' W 005°48'510.0
2017-Apr-25 00:30N 54°54' W 005°41'918.0
2017-Apr-25 00:00N 54°58' W 005°27'917.2
2017-Apr-24 23:30N 55°01' W 005°13'713.5
2017-Apr-24 23:00N 54°59' W 005°02'1 2.0
2017-Apr-24 22:29N 54°58' W 005°01'0 0.0
2017-Apr-24 21:47N 54°58' W 005°01'0 0.0
2017-Apr-24 21:23N 54°58' W 005°01'0 0.0
2017-Apr-24 21:00N 54°58' W 005°01'5 9.8
2017-Apr-24 20:30N 55°02' W 005°06'917.8
2017-Apr-24 20:00N 54°58' W 005°20'918.9
2017-Apr-24 19:30N 54°54' W 005°35'815.9
2017-Apr-24 19:01N 54°51' W 005°48'0 0.1
2017-Apr-24 18:30N 54°51' W 005°48'0 0.0
2017-Apr-24 18:00N 54°51' W 005°48'0 0.1
2017-Apr-24 17:30N 54°51' W 005°48'815.4
2017-Apr-24 17:00N 54°55' W 005°36'816.6
2017-Apr-24 16:30N 54°58' W 005°23'816.6
2017-Apr-24 16:00N 55°01' W 005°10'612.2
2017-Apr-24 15:30N 54°58' W 005°01'0 0.2
2017-Apr-24 15:00N 54°58' W 005°01'0 0.0
2017-Apr-24 14:30N 54°58' W 005°01'1111.1
2017-Apr-24 13:30N 54°58' W 005°20'1019.3
2017-Apr-24 13:00N 54°54' W 005°36'815.5
2017-Apr-24 12:31N 54°51' W 005°48'0 0.3
2017-Apr-24 12:00N 54°51' W 005°48'0 0.0
2017-Apr-24 11:30N 54°51' W 005°48'5 9.5
2017-Apr-24 11:00N 54°53' W 005°41'917.4
2017-Apr-24 10:30N 54°57' W 005°27'917.1
2017-Apr-24 10:00N 55°01' W 005°14'713.5
2017-Apr-24 09:30N 54°59' W 005°02'1 2.0
2017-Apr-24 08:50N 54°58' W 005°01'0 0.0
2017-Apr-24 08:30N 54°58' W 005°01'510.0
2017-Apr-24 08:01N 55°01' W 005°07'816.1
2017-Apr-24 07:31N 54°58' W 005°20'817.0
2017-Apr-24 07:01N 54°55' W 005°33'917.7
2017-Apr-24 06:30N 54°52' W 005°47'1 1.8
2017-Apr-24 06:00N 54°51' W 005°48'0 0.0
2017-Apr-24 05:30N 54°51' W 005°48'0 0.0
2017-Apr-24 05:00N 54°51' W 005°48'611.5
2017-Apr-24 04:31N 54°54' W 005°39'917.4
2017-Apr-24 04:01N 54°59' W 005°27'815.2
2017-Apr-24 03:31N 55°01' W 005°14'713.9
2017-Apr-24 03:00N 54°59' W 005°03'2 2.9
2017-Apr-24 02:22N 54°58' W 005°01'0 0.0
2017-Apr-24 01:58N 54°58' W 005°01'0 0.0
2017-Apr-24 01:28N 54°58' W 005°01'0 0.0
2017-Apr-24 00:58N 54°58' W 005°01'0 0.0
2017-Apr-24 00:28N 54°58' W 005°01'0 0.0
2017-Apr-24 00:01N 54°58' W 005°01'510.5
2017-Apr-23 23:30N 55°02' W 005°07'1019.5
2017-Apr-23 23:00N 54°58' W 005°22'918.5
2017-Apr-23 22:30N 54°54' W 005°37'713.5
2017-Apr-23 22:00N 54°51' W 005°48'0 0.2
2017-Apr-23 21:28N 54°51' W 005°48'0 0.0
2017-Apr-23 20:59N 54°51' W 005°48'511.1
2017-Apr-23 20:31N 54°54' W 005°40'816.6
2017-Apr-23 20:00N 54°57' W 005°27'816.4
2017-Apr-23 19:30N 55°00' W 005°14'612.6
2017-Apr-23 19:00N 54°59' W 005°03'2 3.5
2017-Apr-23 18:28N 54°58' W 005°01'0 0.0
2017-Apr-23 17:55N 54°58' W 005°01'0 0.0
2017-Apr-23 17:29N 54°58' W 005°01'5 8.6
2017-Apr-23 16:55N 55°01' W 005°07'718.4
2017-Apr-23 16:31N 54°59' W 005°18'1020.0
2017-Apr-23 16:01N 54°55' W 005°34'816.9
2017-Apr-23 15:31N 54°51' W 005°48'0 0.3
2017-Apr-23 14:58N 54°51' W 005°48'3 3.4
2017-Apr-23 14:00N 54°53' W 005°43'917.6
2017-Apr-23 13:30N 54°57' W 005°30'816.9
2017-Apr-23 13:00N 55°00' W 005°16'714.2
2017-Apr-23 12:30N 54°60' W 005°04'3 5.0
2017-Apr-23 12:00N 54°58' W 005°01'0 0.0
2017-Apr-23 11:30N 54°58' W 005°01'611.8
2017-Apr-23 11:00N 55°02' W 005°09'918.2
2017-Apr-23 10:30N 54°57' W 005°23'917.5
2017-Apr-23 10:00N 54°54' W 005°37'714.0
2017-Apr-23 09:31N 54°51' W 005°48'0 0.1
2017-Apr-23 09:01N 54°51' W 005°48'0 0.0
2017-Apr-23 08:30N 54°51' W 005°48'2 4.8
2017-Apr-23 08:00N 54°52' W 005°45'917.3
2017-Apr-23 07:30N 54°56' W 005°31'917.5
2017-Apr-23 07:00N 54°60' W 005°17'814.0
2017-Apr-23 06:25N 54°59' W 005°03'2 4.0
2017-Apr-23 05:58N 54°58' W 005°01'0 0.0
2017-Apr-23 05:16N 54°58' W 005°01'0 0.0
2017-Apr-23 04:52N 54°58' W 005°01'0 0.0
2017-Apr-23 04:28N 54°58' W 005°01'0 0.0
2017-Apr-23 03:58N 54°58' W 005°01'0 0.0
2017-Apr-23 03:28N 54°58' W 005°01'0 0.0
2017-Apr-23 02:58N 54°58' W 005°01'0 0.0
2017-Apr-23 02:28N 54°58' W 005°01'0 0.0
2017-Apr-23 01:58N 54°58' W 005°01'0 0.0
2017-Apr-23 01:28N 54°58' W 005°01'0 0.0
2017-Apr-23 00:58N 54°58' W 005°01'0 0.0
2017-Apr-23 00:28N 54°58' W 005°01'0 0.0
2017-Apr-22 23:58N 54°58' W 005°01'0 0.0
2017-Apr-22 23:28N 54°58' W 005°01'0 0.0
2017-Apr-22 22:40N 54°58' W 005°01'0 0.0
2017-Apr-22 22:28N 54°58' W 005°01'0 0.0
2017-Apr-22 21:58N 54°58' W 005°01'0 0.0
2017-Apr-22 21:19N 54°58' W 005°01'0 0.0
2017-Apr-22 20:58N 54°58' W 005°01'0 0.0
2017-Apr-22 20:28N 54°58' W 005°01'0 0.0
2017-Apr-22 19:58N 54°58' W 005°01'0 0.0
2017-Apr-22 19:25N 54°58' W 005°01'0 0.0
2017-Apr-22 18:58N 54°58' W 005°01'0 0.0
2017-Apr-22 18:16N 54°58' W 005°01'0 0.0
2017-Apr-22 17:55N 54°58' W 005°01'0 0.3
2017-Apr-22 17:31N 54°58' W 005°01'714.0
2017-Apr-22 17:01N 55°01' W 005°12'1121.5
2017-Apr-22 16:30N 54°56' W 005°29'1122.5
2017-Apr-22 16:01N 54°52' W 005°47'1 1.7
2017-Apr-22 15:20N 54°51' W 005°48'0 0.0
2017-Apr-22 14:56N 54°51' W 005°48'0 0.0
2017-Apr-22 14:26N 54°51' W 005°48'9 9.3
2017-Apr-22 13:31N 54°55' W 005°35'1121.8
2017-Apr-22 13:01N 54°60' W 005°18'916.4
2017-Apr-22 12:29N 54°59' W 005°03'2 3.4
2017-Apr-22 11:59N 54°58' W 005°01'0 0.0
2017-Apr-22 11:30N 54°58' W 005°01'5 9.6
2017-Apr-22 11:01N 55°01' W 005°06'816.9
2017-Apr-22 10:31N 54°58' W 005°20'816.5
2017-Apr-22 10:01N 54°55' W 005°33'816.5
2017-Apr-22 09:30N 54°52' W 005°46'2 3.0
2017-Apr-22 08:59N 54°51' W 005°48'0 0.0
2017-Apr-22 08:29N 54°51' W 005°48'4 8.3
2017-Apr-22 08:00N 54°53' W 005°43'917.5
2017-Apr-22 07:30N 54°57' W 005°29'917.0
2017-Apr-22 07:00N 55°00' W 005°15'713.8
2017-Apr-22 06:30N 54°59' W 005°03'2 2.4
2017-Apr-22 05:44N 54°58' W 005°01'0 0.0
2017-Apr-22 05:26N 54°58' W 005°01'0 0.0
2017-Apr-22 05:00N 54°58' W 005°01'510.1
2017-Apr-22 04:30N 55°02' W 005°07'815.6
2017-Apr-22 04:01N 54°59' W 005°19'816.3
2017-Apr-22 03:30N 54°55' W 005°32'917.7
2017-Apr-22 03:00N 54°52' W 005°47'1 2.4
2017-Apr-22 02:26N 54°51' W 005°48'0 0.0
2017-Apr-22 01:59N 54°51' W 005°48'0 0.0
2017-Apr-22 01:29N 54°51' W 005°48'0 0.0
2017-Apr-22 00:59N 54°51' W 005°48'3 6.7
2017-Apr-22 00:30N 54°53' W 005°44'917.4
2017-Apr-22 00:01N 54°57' W 005°30'917.1
2017-Apr-21 23:31N 55°00' W 005°16'714.0
2017-Apr-21 22:58N 54°59' W 005°03'2 4.4
2017-Apr-21 22:28N 54°58' W 005°01'0 0.0
2017-Apr-21 21:58N 54°58' W 005°01'0 0.0
2017-Apr-21 21:25N 54°58' W 005°01'0 0.0
2017-Apr-21 21:00N 54°58' W 005°01'610.2
2017-Apr-21 20:27N 55°01' W 005°08'717.0
2017-Apr-21 20:01N 54°58' W 005°20'917.3
2017-Apr-21 19:31N 54°55' W 005°34'917.0
2017-Apr-21 19:00N 54°51' W 005°48'1 1.1
2017-Apr-21 18:28N 54°51' W 005°48'0 0.0
2017-Apr-21 17:58N 54°51' W 005°48'0 0.0
2017-Apr-21 17:30N 54°51' W 005°48'714.1
2017-Apr-21 17:00N 54°54' W 005°37'1121.7
2017-Apr-21 16:30N 54°59' W 005°20'917.3
2017-Apr-21 15:58N 54°60' W 005°04'3 5.3
2017-Apr-21 15:28N 54°58' W 005°01'0 0.0
2017-Apr-21 14:58N 54°58' W 005°01'0 0.0
2017-Apr-21 14:29N 54°58' W 005°01'1110.7
2017-Apr-21 13:30N 54°58' W 005°19'1020.5
2017-Apr-21 13:00N 54°54' W 005°36'815.5
2017-Apr-21 12:30N 54°51' W 005°48'0 0.1
2017-Apr-21 12:00N 54°51' W 005°48'0 0.0
2017-Apr-21 11:30N 54°51' W 005°48'713.5
2017-Apr-21 11:01N 54°54' W 005°38'917.5
2017-Apr-21 10:31N 54°58' W 005°24'917.2
2017-Apr-21 10:00N 55°01' W 005°10'713.0
2017-Apr-21 09:30N 54°58' W 005°01'0 0.0
2017-Apr-21 08:54N 54°58' W 005°01'0 0.0
2017-Apr-21 08:30N 54°58' W 005°01'5 9.3
2017-Apr-21 07:58N 55°01' W 005°07'817.1
2017-Apr-21 07:30N 54°58' W 005°19'917.1
2017-Apr-21 07:00N 54°55' W 005°33'917.4
2017-Apr-21 06:30N 54°52' W 005°47'1 2.3
2017-Apr-21 05:58N 54°51' W 005°48'0 0.0
2017-Apr-21 05:28N 54°51' W 005°48'0 0.0
2017-Apr-21 05:00N 54°51' W 005°48'611.1
2017-Apr-21 04:30N 54°54' W 005°40'816.9
2017-Apr-21 04:01N 54°57' W 005°26'917.2
2017-Apr-21 03:31N 55°01' W 005°13'612.9
2017-Apr-21 03:00N 54°58' W 005°02'1 2.0
2017-Apr-21 02:30N 54°58' W 005°01'0 0.0
2017-Apr-21 01:57N 54°58' W 005°01'0 0.0
2017-Apr-21 01:30N 54°58' W 005°01'0 0.1
2017-Apr-21 01:00N 54°58' W 005°01'611.1
2017-Apr-21 00:30N 55°01' W 005°08'816.9
2017-Apr-21 00:00N 54°58' W 005°22'1020.3
2017-Apr-20 23:30N 54°54' W 005°38'713.2
2017-Apr-20 23:01N 54°51' W 005°48'0 0.1
2017-Apr-20 22:28N 54°51' W 005°48'0 0.0
2017-Apr-20 21:58N 54°51' W 005°48'0 0.0
2017-Apr-20 21:25N 54°51' W 005°48'0 0.0
2017-Apr-20 20:56N 54°51' W 005°48'4 9.4
2017-Apr-20 20:31N 54°53' W 005°42'917.0
2017-Apr-20 20:00N 54°57' W 005°29'817.0
2017-Apr-20 19:30N 55°00' W 005°16'713.5
2017-Apr-20 18:59N 54°59' W 005°03'2 4.7
2017-Apr-20 18:30N 54°58' W 005°01'0 0.0
2017-Apr-20 17:57N 54°58' W 005°01'0 0.1
2017-Apr-20 17:30N 54°58' W 005°01'611.5
2017-Apr-20 17:00N 55°02' W 005°08'816.8
2017-Apr-20 16:30N 54°58' W 005°21'917.8
2017-Apr-20 16:00N 54°54' W 005°36'813.3
2017-Apr-20 15:25N 54°51' W 005°48'0 0.0
2017-Apr-20 14:58N 54°51' W 005°48'0 0.0
2017-Apr-20 14:30N 54°51' W 005°48'  
Track history (hours):
 
Tides and Currents Weather Stations Pressure Air Temp Water Temp Dewpoint Dewpoint Depression Visibility Wind Speed Wind Dir Waves Ship Positions

European Highlander

Operator: P&O Irish Sea Ltd

Last reported at 2017-Apr-30 14:28 UTC. Time now 2017-Apr-30 14:46 UTC.
Position N 54°51' W 005°48'.

Length 161 m; draft 5.3 m.

Type: Passenger vessel. MMSI: 311404000.

Date/timePositionNaut miles runAvg speedWind from/ knotsBaromVisibWave heightAir tempDewpointWater temp
2017-Apr-30 14:28N 54°51' W 005°48'5 4.8
2017-Apr-30 13:30N 54°53' W 005°41'815.8
2017-Apr-30 13:00N 54°57' W 005°29'816.1
2017-Apr-30 12:31N 55°00' W 005°16'713.7
2017-Apr-30 11:58N 54°59' W 005°03'2 4.3
2017-Apr-30 11:27N 54°58' W 005°01'0 0.0
2017-Apr-30 10:57N 54°58' W 005°01'0 0.0
2017-Apr-30 10:30N 54°58' W 005°01'0 0.0
2017-Apr-30 09:57N 54°58' W 005°01'0 0.0
2017-Apr-30 09:30N 54°58' W 005°01'0 0.0
2017-Apr-30 08:39N 54°58' W 005°01'0 0.0
2017-Apr-30 08:31N 54°58' W 005°01'5 9.9
2017-Apr-30 08:00N 55°02' W 005°07'816.8
2017-Apr-30 07:30N 54°59' W 005°20'816.2
2017-Apr-30 07:00N 54°55' W 005°33'816.0
2017-Apr-30 06:30N 54°52' W 005°46'2 3.0
2017-Apr-30 05:59N 54°51' W 005°48'0 0.0
2017-Apr-30 05:29N 54°51' W 005°48'0 0.0
2017-Apr-30 04:59N 54°51' W 005°48'0 0.0
2017-Apr-30 04:29N 54°51' W 005°48'0 0.0
2017-Apr-30 03:59N 54°51' W 005°48'0 0.0
2017-Apr-30 03:26N 54°51' W 005°48'0 0.0
2017-Apr-30 02:59N 54°51' W 005°48'0 0.0
2017-Apr-30 02:29N 54°51' W 005°48'0 0.0
2017-Apr-30 01:59N 54°51' W 005°48'0 0.0
2017-Apr-30 01:29N 54°51' W 005°48'0 0.0
2017-Apr-30 00:59N 54°51' W 005°48'0 0.0
2017-Apr-30 00:29N 54°51' W 005°48'0 0.0
2017-Apr-29 23:59N 54°51' W 005°48'0 0.0
2017-Apr-29 23:29N 54°51' W 005°48'0 0.0
2017-Apr-29 22:59N 54°51' W 005°48'0 0.0
2017-Apr-29 22:29N 54°51' W 005°48'0 0.0
2017-Apr-29 21:59N 54°51' W 005°48'0 0.0
2017-Apr-29 21:29N 54°51' W 005°48'0 0.0
2017-Apr-29 20:59N 54°51' W 005°48'3 5.3
2017-Apr-29 20:30N 54°52' W 005°45'917.2
2017-Apr-29 20:00N 54°56' W 005°31'917.3
2017-Apr-29 19:30N 54°60' W 005°17'814.9
2017-Apr-29 18:58N 54°59' W 005°03'2 3.9
2017-Apr-29 18:28N 54°58' W 005°01'0 0.0
2017-Apr-29 17:58N 54°58' W 005°01'0 0.0
2017-Apr-29 17:30N 54°58' W 005°01'510.8
2017-Apr-29 17:01N 55°02' W 005°08'917.4
2017-Apr-29 16:30N 54°58' W 005°22'816.9
2017-Apr-29 16:01N 54°54' W 005°35'815.7
2017-Apr-29 15:31N 54°52' W 005°48'1 1.4
2017-Apr-29 14:59N 54°51' W 005°48'5 4.8
2017-Apr-29 14:00N 54°54' W 005°41'816.9
2017-Apr-29 13:30N 54°57' W 005°28'816.7
2017-Apr-29 13:01N 55°01' W 005°15'714.0
2017-Apr-29 12:29N 54°59' W 005°02'1 2.3
2017-Apr-29 11:52N 54°58' W 005°01'0 0.0
2017-Apr-29 11:30N 54°58' W 005°01'611.6
2017-Apr-29 11:00N 55°01' W 005°09'817.0
2017-Apr-29 10:30N 54°57' W 005°22'918.1
2017-Apr-29 10:00N 54°54' W 005°36'714.7
2017-Apr-29 09:31N 54°51' W 005°48'0 0.2
2017-Apr-29 08:58N 54°51' W 005°48'0 0.0
2017-Apr-29 08:28N 54°51' W 005°48'4 8.9
2017-Apr-29 08:00N 54°53' W 005°42'917.1
2017-Apr-29 07:30N 54°57' W 005°29'917.2
2017-Apr-29 07:01N 55°01' W 005°16'714.6
2017-Apr-29 06:30N 54°59' W 005°03'2 3.8
2017-Apr-29 05:58N 54°58' W 005°01'0 0.0
2017-Apr-29 05:28N 54°58' W 005°01'0 0.0
2017-Apr-29 04:59N 54°58' W 005°01'5 9.2
2017-Apr-29 04:27N 55°02' W 005°06'818.0
2017-Apr-29 04:01N 54°58' W 005°19'918.0
2017-Apr-29 03:30N 54°55' W 005°33'817.0
2017-Apr-29 03:00N 54°52' W 005°47'1 2.0
2017-Apr-29 02:29N 54°51' W 005°48'0 0.0
2017-Apr-29 01:59N 54°51' W 005°48'0 0.0
2017-Apr-29 01:29N 54°51' W 005°48'0 0.0
2017-Apr-29 00:59N 54°51' W 005°48'4 8.1
2017-Apr-29 00:30N 54°53' W 005°43'917.4
2017-Apr-29 00:00N 54°57' W 005°29'917.5
2017-Apr-28 23:30N 55°00' W 005°15'714.1
2017-Apr-28 23:00N 54°59' W 005°03'2 3.5
2017-Apr-28 22:30N 54°58' W 005°01'0 0.0
2017-Apr-28 21:57N 54°58' W 005°01'0 0.0
2017-Apr-28 21:30N 54°58' W 005°01'0 0.0
2017-Apr-28 21:00N 54°58' W 005°01'510.5
2017-Apr-28 20:30N 55°01' W 005°07'918.8
2017-Apr-28 20:00N 54°58' W 005°22'1020.8
2017-Apr-28 19:30N 54°53' W 005°39'611.6
2017-Apr-28 19:00N 54°51' W 005°48'0 0.0
2017-Apr-28 18:28N 54°51' W 005°48'0 0.0
2017-Apr-28 17:58N 54°51' W 005°48'0 0.0
2017-Apr-28 17:30N 54°51' W 005°48'612.9
2017-Apr-28 17:00N 54°54' W 005°38'917.1
2017-Apr-28 16:30N 54°58' W 005°25'816.4
2017-Apr-28 16:00N 55°01' W 005°12'714.1
2017-Apr-28 15:30N 54°58' W 005°01'0 0.0
2017-Apr-28 14:56N 54°58' W 005°01'5 5.5
2017-Apr-28 14:01N 55°02' W 005°07'919.0
2017-Apr-28 13:31N 54°58' W 005°22'917.5
2017-Apr-28 13:01N 54°54' W 005°36'815.1
2017-Apr-28 12:30N 54°51' W 005°48'0 0.2
2017-Apr-28 12:00N 54°51' W 005°48'0 0.0
2017-Apr-28 11:30N 54°51' W 005°48'611.9
2017-Apr-28 11:00N 54°54' W 005°39'918.1
2017-Apr-28 10:30N 54°58' W 005°25'1019.7
2017-Apr-28 10:00N 55°02' W 005°09'611.9
2017-Apr-28 09:30N 54°58' W 005°01'0 0.0
2017-Apr-28 09:00N 54°58' W 005°01'0 0.0
2017-Apr-28 08:30N 54°58' W 005°01'5 8.3
2017-Apr-28 07:54N 55°02' W 005°06'616.3
2017-Apr-28 07:30N 54°59' W 005°17'918.3
2017-Apr-28 07:01N 54°55' W 005°31'918.6
2017-Apr-28 06:30N 54°52' W 005°47'1 2.8
2017-Apr-28 06:00N 54°51' W 005°48'0 0.0
2017-Apr-28 05:30N 54°51' W 005°48'0 0.0
2017-Apr-28 05:00N 54°51' W 005°48'611.9
2017-Apr-28 04:31N 54°54' W 005°40'917.4
2017-Apr-28 04:00N 54°58' W 005°26'816.9
2017-Apr-28 03:30N 55°01' W 005°12'713.9
2017-Apr-28 03:01N 54°58' W 005°01'0 0.7
2017-Apr-28 02:29N 54°58' W 005°01'0 0.0
2017-Apr-28 01:56N 54°58' W 005°01'0 0.0
2017-Apr-28 01:29N 54°58' W 005°01'0 0.0
2017-Apr-28 01:00N 54°58' W 005°01'510.3
2017-Apr-28 00:30N 55°01' W 005°07'917.3
2017-Apr-28 00:01N 54°57' W 005°20'1617.4
2017-Apr-27 23:05N 54°52' W 005°47'112.3
2017-Apr-27 23:00N 54°51' W 005°48'0 0.8
2017-Apr-27 22:29N 54°51' W 005°48'0 0.0
2017-Apr-27 21:59N 54°51' W 005°48'0 0.0
2017-Apr-27 21:29N 54°51' W 005°48'0 0.1
2017-Apr-27 21:00N 54°51' W 005°48'713.1
2017-Apr-27 20:30N 54°54' W 005°38'816.4
2017-Apr-27 20:00N 54°58' W 005°25'917.8
2017-Apr-27 19:30N 55°01' W 005°11'611.7
2017-Apr-27 19:00N 54°58' W 005°02'1 1.7
2017-Apr-27 18:29N 54°58' W 005°01'0 0.0
2017-Apr-27 17:59N 54°58' W 005°01'0 0.0
2017-Apr-27 17:30N 54°58' W 005°01'5 8.7
2017-Apr-27 16:57N 55°02' W 005°06'819.1
2017-Apr-27 16:30N 54°59' W 005°20'1019.7
2017-Apr-27 16:00N 54°54' W 005°35'815.9
2017-Apr-27 15:30N 54°51' W 005°48'0 0.2
2017-Apr-27 14:55N 54°51' W 005°48'5 5.3
2017-Apr-27 14:01N 54°54' W 005°41'1020.7
2017-Apr-27 13:31N 54°58' W 005°25'919.0
2017-Apr-27 13:01N 55°01' W 005°09'612.1
2017-Apr-27 12:30N 54°58' W 005°01'0 0.0
2017-Apr-27 12:00N 54°58' W 005°01'0 0.0
2017-Apr-27 11:30N 54°58' W 005°01'611.2
2017-Apr-27 11:00N 55°02' W 005°08'816.9
2017-Apr-27 10:30N 54°58' W 005°21'917.3
2017-Apr-27 10:00N 54°55' W 005°35'815.9
2017-Apr-27 09:30N 54°51' W 005°48'0 0.6
2017-Apr-27 08:59N 54°51' W 005°48'0 0.0
2017-Apr-27 08:31N 54°51' W 005°48'510.8
2017-Apr-27 08:01N 54°54' W 005°40'816.4
2017-Apr-27 07:30N 54°57' W 005°27'917.5
2017-Apr-27 07:00N 55°01' W 005°13'612.8
2017-Apr-27 06:30N 54°59' W 005°03'1 2.8
2017-Apr-27 05:59N 54°58' W 005°01'0 0.0
2017-Apr-27 05:29N 54°58' W 005°01'0 0.0
2017-Apr-27 05:00N 54°58' W 005°01'5 9.1
2017-Apr-27 04:28N 55°02' W 005°06'818.1
2017-Apr-27 04:01N 54°58' W 005°20'918.7
2017-Apr-27 03:30N 54°54' W 005°35'816.1
2017-Apr-27 03:00N 54°51' W 005°48'0 0.6
2017-Apr-27 02:26N 54°51' W 005°48'0 0.0
2017-Apr-27 01:59N 54°51' W 005°48'0 0.0
2017-Apr-27 01:29N 54°51' W 005°48'0 0.0
2017-Apr-27 00:59N 54°51' W 005°48'5 9.8
2017-Apr-27 00:30N 54°53' W 005°41'918.1
2017-Apr-27 00:00N 54°57' W 005°27'917.4
2017-Apr-26 23:30N 55°01' W 005°13'713.7
2017-Apr-26 23:00N 54°59' W 005°02'1 1.3
2017-Apr-26 22:13N 54°58' W 005°01'0 0.0
2017-Apr-26 21:40N 54°58' W 005°01'0 0.0
2017-Apr-26 21:25N 54°58' W 005°01'0 0.1
2017-Apr-26 21:00N 54°58' W 005°01'611.8
2017-Apr-26 20:31N 55°01' W 005°09'816.2
2017-Apr-26 20:00N 54°57' W 005°21'918.3
2017-Apr-26 19:30N 54°54' W 005°36'714.9
2017-Apr-26 19:00N 54°51' W 005°48'0 0.2
2017-Apr-26 18:29N 54°51' W 005°48'0 0.0
2017-Apr-26 17:59N 54°51' W 005°48'0 0.0
2017-Apr-26 17:31N 54°51' W 005°48'611.8
2017-Apr-26 17:00N 54°54' W 005°39'917.9
2017-Apr-26 16:30N 54°58' W 005°25'917.8
2017-Apr-26 16:01N 55°01' W 005°11'713.2
2017-Apr-26 15:30N 54°58' W 005°01'0 0.0
2017-Apr-26 14:58N 54°58' W 005°01'0 0.0
2017-Apr-26 14:30N 54°58' W 005°01'1312.6
2017-Apr-26 13:30N 54°57' W 005°23'917.2
2017-Apr-26 13:00N 54°54' W 005°36'714.3
2017-Apr-26 12:31N 54°51' W 005°48'0 0.2
2017-Apr-26 11:58N 54°51' W 005°48'0 0.0
2017-Apr-26 11:29N 54°51' W 005°48'510.7
2017-Apr-26 11:00N 54°54' W 005°41'918.5
2017-Apr-26 10:30N 54°58' W 005°26'918.4
2017-Apr-26 10:00N 55°01' W 005°11'713.5
2017-Apr-26 09:30N 54°58' W 005°01'0 0.1
2017-Apr-26 09:00N 54°58' W 005°01'0 0.0
2017-Apr-26 08:30N 54°58' W 005°01'611.4
2017-Apr-26 08:01N 55°01' W 005°08'918.5
2017-Apr-26 07:31N 54°57' W 005°23'1020.7
2017-Apr-26 07:00N 54°53' W 005°39'511.0
2017-Apr-26 06:30N 54°51' W 005°48'0 0.0
2017-Apr-26 05:59N 54°51' W 005°48'0 0.0
2017-Apr-26 05:29N 54°51' W 005°48'0 0.0
2017-Apr-26 05:00N 54°51' W 005°48'611.5
2017-Apr-26 04:30N 54°54' W 005°40'917.9
2017-Apr-26 04:00N 54°58' W 005°26'918.0
2017-Apr-26 03:31N 55°01' W 005°11'713.5
2017-Apr-26 03:01N 54°58' W 005°01'0 0.0
2017-Apr-26 02:29N 54°58' W 005°01'0 0.0
2017-Apr-26 01:59N 54°58' W 005°01'0 0.0
2017-Apr-26 01:26N 54°58' W 005°01'0 0.0
2017-Apr-26 01:00N 54°58' W 005°01'510.9
2017-Apr-26 00:31N 55°02' W 005°08'918.3
2017-Apr-26 00:01N 54°58' W 005°23'816.4
2017-Apr-25 23:31N 54°54' W 005°35'815.4
2017-Apr-25 23:00N 54°51' W 005°48'0 0.8
2017-Apr-25 22:28N 54°51' W 005°48'0 0.0
2017-Apr-25 21:55N 54°51' W 005°48'0 0.0
2017-Apr-25 21:28N 54°51' W 005°48'0 0.0
2017-Apr-25 21:01N 54°51' W 005°48'612.3
2017-Apr-25 20:30N 54°54' W 005°39'917.4
2017-Apr-25 20:00N 54°58' W 005°25'917.7
2017-Apr-25 19:30N 55°02' W 005°11'612.7
2017-Apr-25 19:01N 54°58' W 005°02'1 1.8
2017-Apr-25 18:28N 54°58' W 005°01'0 0.0
2017-Apr-25 17:58N 54°58' W 005°01'0 0.0
2017-Apr-25 17:30N 54°58' W 005°01'5 9.3
2017-Apr-25 16:59N 55°02' W 005°06'918.6
2017-Apr-25 16:30N 54°58' W 005°20'1019.9
2017-Apr-25 16:00N 54°54' W 005°36'714.9
2017-Apr-25 15:31N 54°51' W 005°48'0 0.1
2017-Apr-25 14:55N 54°51' W 005°48'5 5.2
2017-Apr-25 14:00N 54°54' W 005°41'917.7
2017-Apr-25 13:30N 54°58' W 005°27'816.7
2017-Apr-25 13:00N 55°01' W 005°14'713.7
2017-Apr-25 12:31N 54°59' W 005°02'1 2.2
2017-Apr-25 11:52N 54°58' W 005°01'0 0.0
2017-Apr-25 11:30N 54°58' W 005°01'5 9.4
2017-Apr-25 10:59N 55°02' W 005°06'817.2
2017-Apr-25 10:30N 54°58' W 005°19'917.7
2017-Apr-25 10:00N 54°55' W 005°33'917.6
2017-Apr-25 09:30N 54°51' W 005°48'0 0.4
2017-Apr-25 09:00N 54°51' W 005°48'0 0.0
2017-Apr-25 08:30N 54°51' W 005°48'510.9
2017-Apr-25 08:00N 54°54' W 005°40'1019.5
2017-Apr-25 07:31N 54°57' W 005°24'1312.2
2017-Apr-25 06:25N 54°58' W 005°01'0 0.0
2017-Apr-25 05:58N 54°58' W 005°01'0 0.0
2017-Apr-25 05:28N 54°58' W 005°01'0 0.0
2017-Apr-25 05:00N 54°58' W 005°01'510.4
2017-Apr-25 04:30N 55°02' W 005°07'918.2
2017-Apr-25 04:00N 54°58' W 005°22'1019.2
2017-Apr-25 03:30N 54°54' W 005°37'714.1
2017-Apr-25 03:01N 54°51' W 005°48'0 0.1
2017-Apr-25 02:30N 54°51' W 005°48'0 0.0
2017-Apr-25 02:00N 54°51' W 005°48'0 0.0
2017-Apr-25 01:30N 54°51' W 005°48'0 0.0
2017-Apr-25 01:00N 54°51' W 005°48'510.0
2017-Apr-25 00:30N 54°54' W 005°41'918.0
2017-Apr-25 00:00N 54°58' W 005°27'917.2
2017-Apr-24 23:30N 55°01' W 005°13'713.5
2017-Apr-24 23:00N 54°59' W 005°02'1 2.0
2017-Apr-24 22:29N 54°58' W 005°01'0 0.0
2017-Apr-24 21:47N 54°58' W 005°01'0 0.0
2017-Apr-24 21:23N 54°58' W 005°01'0 0.0
2017-Apr-24 21:00N 54°58' W 005°01'5 9.8
2017-Apr-24 20:30N 55°02' W 005°06'917.8
2017-Apr-24 20:00N 54°58' W 005°20'918.9
2017-Apr-24 19:30N 54°54' W 005°35'815.9
2017-Apr-24 19:01N 54°51' W 005°48'0 0.1
2017-Apr-24 18:30N 54°51' W 005°48'0 0.0
2017-Apr-24 18:00N 54°51' W 005°48'0 0.1
2017-Apr-24 17:30N 54°51' W 005°48'815.4
2017-Apr-24 17:00N 54°55' W 005°36'816.6
2017-Apr-24 16:30N 54°58' W 005°23'816.6
2017-Apr-24 16:00N 55°01' W 005°10'612.2
2017-Apr-24 15:30N 54°58' W 005°01'0 0.2
2017-Apr-24 15:00N 54°58' W 005°01'0 0.0
2017-Apr-24 14:30N 54°58' W 005°01'1111.1
2017-Apr-24 13:30N 54°58' W 005°20'1019.3
2017-Apr-24 13:00N 54°54' W 005°36'815.5
2017-Apr-24 12:31N 54°51' W 005°48'0 0.3
2017-Apr-24 12:00N 54°51' W 005°48'0 0.0
2017-Apr-24 11:30N 54°51' W 005°48'5 9.5
2017-Apr-24 11:00N 54°53' W 005°41'917.4
2017-Apr-24 10:30N 54°57' W 005°27'917.1
2017-Apr-24 10:00N 55°01' W 005°14'713.5
2017-Apr-24 09:30N 54°59' W 005°02'1 2.0
2017-Apr-24 08:50N 54°58' W 005°01'0 0.0
2017-Apr-24 08:30N 54°58' W 005°01'510.0
2017-Apr-24 08:01N 55°01' W 005°07'816.1
2017-Apr-24 07:31N 54°58' W 005°20'817.0
2017-Apr-24 07:01N 54°55' W 005°33'917.7
2017-Apr-24 06:30N 54°52' W 005°47'1 1.8
2017-Apr-24 06:00N 54°51' W 005°48'0 0.0
2017-Apr-24 05:30N 54°51' W 005°48'0 0.0
2017-Apr-24 05:00N 54°51' W 005°48'611.5
2017-Apr-24 04:31N 54°54' W 005°39'917.4
2017-Apr-24 04:01N 54°59' W 005°27'815.2
2017-Apr-24 03:31N 55°01' W 005°14'713.9
2017-Apr-24 03:00N 54°59' W 005°03'2 2.9
2017-Apr-24 02:22N 54°58' W 005°01'0 0.0
2017-Apr-24 01:58N 54°58' W 005°01'0 0.0
2017-Apr-24 01:28N 54°58' W 005°01'0 0.0
2017-Apr-24 00:58N 54°58' W 005°01'0 0.0
2017-Apr-24 00:28N 54°58' W 005°01'0 0.0
2017-Apr-24 00:01N 54°58' W 005°01'510.5
2017-Apr-23 23:30N 55°02' W 005°07'1019.5
2017-Apr-23 23:00N 54°58' W 005°22'918.5
2017-Apr-23 22:30N 54°54' W 005°37'713.5
2017-Apr-23 22:00N 54°51' W 005°48'0 0.2
2017-Apr-23 21:28N 54°51' W 005°48'0 0.0
2017-Apr-23 20:59N 54°51' W 005°48'511.1
2017-Apr-23 20:31N 54°54' W 005°40'816.6
2017-Apr-23 20:00N 54°57' W 005°27'816.4
2017-Apr-23 19:30N 55°00' W 005°14'612.6
2017-Apr-23 19:00N 54°59' W 005°03'2 3.5
2017-Apr-23 18:28N 54°58' W 005°01'0 0.0
2017-Apr-23 17:55N 54°58' W 005°01'0 0.0
2017-Apr-23 17:29N 54°58' W 005°01'5 8.6
2017-Apr-23 16:55N 55°01' W 005°07'718.4
2017-Apr-23 16:31N 54°59' W 005°18'1020.0
2017-Apr-23 16:01N 54°55' W 005°34'816.9
2017-Apr-23 15:31N 54°51' W 005°48'0 0.3
2017-Apr-23 14:58N 54°51' W 005°48'3 3.4
2017-Apr-23 14:00N 54°53' W 005°43'917.6
2017-Apr-23 13:30N 54°57' W 005°30'816.9
2017-Apr-23 13:00N 55°00' W 005°16'714.2
2017-Apr-23 12:30N 54°60' W 005°04'3 5.0
2017-Apr-23 12:00N 54°58' W 005°01'0 0.0
2017-Apr-23 11:30N 54°58' W 005°01'611.8
2017-Apr-23 11:00N 55°02' W 005°09'918.2
2017-Apr-23 10:30N 54°57' W 005°23'917.5
2017-Apr-23 10:00N 54°54' W 005°37'714.0
2017-Apr-23 09:31N 54°51' W 005°48'0 0.1
2017-Apr-23 09:01N 54°51' W 005°48'0 0.0
2017-Apr-23 08:30N 54°51' W 005°48'2 4.8
2017-Apr-23 08:00N 54°52' W 005°45'917.3
2017-Apr-23 07:30N 54°56' W 005°31'917.5
2017-Apr-23 07:00N 54°60' W 005°17'814.0
2017-Apr-23 06:25N 54°59' W 005°03'2 4.0
2017-Apr-23 05:58N 54°58' W 005°01'0 0.0
2017-Apr-23 05:16N 54°58' W 005°01'0 0.0
2017-Apr-23 04:52N 54°58' W 005°01'0 0.0
2017-Apr-23 04:28N 54°58' W 005°01'0 0.0
2017-Apr-23 03:58N 54°58' W 005°01'0 0.0
2017-Apr-23 03:28N 54°58' W 005°01'0 0.0
2017-Apr-23 02:58N 54°58' W 005°01'0 0.0
2017-Apr-23 02:28N 54°58' W 005°01'0 0.0
2017-Apr-23 01:58N 54°58' W 005°01'0 0.0
2017-Apr-23 01:28N 54°58' W 005°01'0 0.0
2017-Apr-23 00:58N 54°58' W 005°01'0 0.0
2017-Apr-23 00:28N 54°58' W 005°01'0 0.0
2017-Apr-22 23:58N 54°58' W 005°01'0 0.0
2017-Apr-22 23:28N 54°58' W 005°01'0 0.0
2017-Apr-22 22:40N 54°58' W 005°01'0 0.0
2017-Apr-22 22:28N 54°58' W 005°01'0 0.0
2017-Apr-22 21:58N 54°58' W 005°01'0 0.0
2017-Apr-22 21:19N 54°58' W 005°01'0 0.0
2017-Apr-22 20:58N 54°58' W 005°01'0 0.0
2017-Apr-22 20:28N 54°58' W 005°01'0 0.0
2017-Apr-22 19:58N 54°58' W 005°01'0 0.0
2017-Apr-22 19:25N 54°58' W 005°01'0 0.0
2017-Apr-22 18:58N 54°58' W 005°01'0 0.0
2017-Apr-22 18:16N 54°58' W 005°01'0 0.0
2017-Apr-22 17:55N 54°58' W 005°01'0 0.3
2017-Apr-22 17:31N 54°58' W 005°01'714.0
2017-Apr-22 17:01N 55°01' W 005°12'1121.5
2017-Apr-22 16:30N 54°56' W 005°29'1122.5
2017-Apr-22 16:01N 54°52' W 005°47'1 1.7
2017-Apr-22 15:20N 54°51' W 005°48'0 0.0
2017-Apr-22 14:56N 54°51' W 005°48'0 0.0
2017-Apr-22 14:26N 54°51' W 005°48'9 9.3
2017-Apr-22 13:31N 54°55' W 005°35'1121.8
2017-Apr-22 13:01N 54°60' W 005°18'916.4
2017-Apr-22 12:29N 54°59' W 005°03'2 3.4
2017-Apr-22 11:59N 54°58' W 005°01'0 0.0
2017-Apr-22 11:30N 54°58' W 005°01'5 9.6
2017-Apr-22 11:01N 55°01' W 005°06'816.9
2017-Apr-22 10:31N 54°58' W 005°20'816.5
2017-Apr-22 10:01N 54°55' W 005°33'816.5
2017-Apr-22 09:30N 54°52' W 005°46'2 3.0
2017-Apr-22 08:59N 54°51' W 005°48'0 0.0
2017-Apr-22 08:29N 54°51' W 005°48'4 8.3
2017-Apr-22 08:00N 54°53' W 005°43'917.5
2017-Apr-22 07:30N 54°57' W 005°29'917.0
2017-Apr-22 07:00N 55°00' W 005°15'713.8
2017-Apr-22 06:30N 54°59' W 005°03'2 2.4
2017-Apr-22 05:44N 54°58' W 005°01'0 0.0
2017-Apr-22 05:26N 54°58' W 005°01'0 0.0
2017-Apr-22 05:00N 54°58' W 005°01'510.1
2017-Apr-22 04:30N 55°02' W 005°07'815.6
2017-Apr-22 04:01N 54°59' W 005°19'816.3
2017-Apr-22 03:30N 54°55' W 005°32'917.7
2017-Apr-22 03:00N 54°52' W 005°47'1 2.4
2017-Apr-22 02:26N 54°51' W 005°48'0 0.0
2017-Apr-22 01:59N 54°51' W 005°48'0 0.0
2017-Apr-22 01:29N 54°51' W 005°48'0 0.0
2017-Apr-22 00:59N 54°51' W 005°48'3 6.7
2017-Apr-22 00:30N 54°53' W 005°44'917.4
2017-Apr-22 00:01N 54°57' W 005°30'917.1
2017-Apr-21 23:31N 55°00' W 005°16'714.0
2017-Apr-21 22:58N 54°59' W 005°03'2 4.4
2017-Apr-21 22:28N 54°58' W 005°01'0 0.0
2017-Apr-21 21:58N 54°58' W 005°01'0 0.0
2017-Apr-21 21:25N 54°58' W 005°01'0 0.0
2017-Apr-21 21:00N 54°58' W 005°01'610.2
2017-Apr-21 20:27N 55°01' W 005°08'717.0
2017-Apr-21 20:01N 54°58' W 005°20'917.3
2017-Apr-21 19:31N 54°55' W 005°34'917.0
2017-Apr-21 19:00N 54°51' W 005°48'1 1.1
2017-Apr-21 18:28N 54°51' W 005°48'0 0.0
2017-Apr-21 17:58N 54°51' W 005°48'0 0.0
2017-Apr-21 17:30N 54°51' W 005°48'714.1
2017-Apr-21 17:00N 54°54' W 005°37'1121.7
2017-Apr-21 16:30N 54°59' W 005°20'917.3
2017-Apr-21 15:58N 54°60' W 005°04'3 5.3
2017-Apr-21 15:28N 54°58' W 005°01'0 0.0
2017-Apr-21 14:58N 54°58' W 005°01'0 0.0
2017-Apr-21 14:29N 54°58' W 005°01'1110.7
2017-Apr-21 13:30N 54°58' W 005°19'1020.5
2017-Apr-21 13:00N 54°54' W 005°36'815.5
2017-Apr-21 12:30N 54°51' W 005°48'0 0.1
2017-Apr-21 12:00N 54°51' W 005°48'0 0.0
2017-Apr-21 11:30N 54°51' W 005°48'713.5
2017-Apr-21 11:01N 54°54' W 005°38'917.5
2017-Apr-21 10:31N 54°58' W 005°24'917.2
2017-Apr-21 10:00N 55°01' W 005°10'713.0
2017-Apr-21 09:30N 54°58' W 005°01'0 0.0
2017-Apr-21 08:54N 54°58' W 005°01'0 0.0
2017-Apr-21 08:30N 54°58' W 005°01'5 9.3
2017-Apr-21 07:58N 55°01' W 005°07'817.1
2017-Apr-21 07:30N 54°58' W 005°19'917.1
2017-Apr-21 07:00N 54°55' W 005°33'917.4
2017-Apr-21 06:30N 54°52' W 005°47'1 2.3
2017-Apr-21 05:58N 54°51' W 005°48'0 0.0
2017-Apr-21 05:28N 54°51' W 005°48'0 0.0
2017-Apr-21 05:00N 54°51' W 005°48'611.1
2017-Apr-21 04:30N 54°54' W 005°40'816.9
2017-Apr-21 04:01N 54°57' W 005°26'917.2
2017-Apr-21 03:31N 55°01' W 005°13'612.9
2017-Apr-21 03:00N 54°58' W 005°02'1 2.0
2017-Apr-21 02:30N 54°58' W 005°01'0 0.0
2017-Apr-21 01:57N 54°58' W 005°01'0 0.0
2017-Apr-21 01:30N 54°58' W 005°01'0 0.1
2017-Apr-21 01:00N 54°58' W 005°01'611.1
2017-Apr-21 00:30N 55°01' W 005°08'816.9
2017-Apr-21 00:00N 54°58' W 005°22'1020.3
2017-Apr-20 23:30N 54°54' W 005°38'713.2
2017-Apr-20 23:01N 54°51' W 005°48'0 0.1
2017-Apr-20 22:28N 54°51' W 005°48'0 0.0
2017-Apr-20 21:58N 54°51' W 005°48'0 0.0
2017-Apr-20 21:25N 54°51' W 005°48'0 0.0
2017-Apr-20 20:56N 54°51' W 005°48'4 9.4
2017-Apr-20 20:31N 54°53' W 005°42'917.0
2017-Apr-20 20:00N 54°57' W 005°29'817.0
2017-Apr-20 19:30N 55°00' W 005°16'713.5
2017-Apr-20 18:59N 54°59' W 005°03'2 4.7
2017-Apr-20 18:30N 54°58' W 005°01'0 0.0
2017-Apr-20 17:57N 54°58' W 005°01'0 0.1
2017-Apr-20 17:30N 54°58' W 005°01'611.5
2017-Apr-20 17:00N 55°02' W 005°08'816.8
2017-Apr-20 16:30N 54°58' W 005°21'917.8
2017-Apr-20 16:00N 54°54' W 005°36'813.3
2017-Apr-20 15:25N 54°51' W 005°48'0 0.0
2017-Apr-20 14:58N 54°51' W 005°48'0 0.0
2017-Apr-20 14:30N 54°51' W 005°48'  

Dump ship's entire track history